Terminal Aerodrome Forecast
Issued by NWS

Current Version | Previous Version | Text Only | Print | Product List | Glossary On
Versions: 1 2 3 4 5 6 7 8 9 10 11 12 13 14 15 16 17 18 19 20 21 22 23 24 25 26 27 28 29 30 31 32 33 34 35 36 37 38 39 40 41 42 43 44 45 46 47 48 49 50
728
FTUS41 KCTP 111153
TAFAOO
TAF
KAOO 111153Z 1112/1212 27015G25KT P6SM -SHSN BKN025 OVC035
     FM111400 29015G25KT P6SM BKN035
     FM120000 28009KT P6SM SCT035=

USA.gov is the U.S. government's official web portal to all federal, state and local government web resources and services.